首页
METAR-TAF:

METAR-TAF

机场 :

墨爾本機場

墨尔本, 澳大利亚

纬度: 37-40-24S, 经度: 144-50-36E, 海拔: 132米

当前天气观测

该预报发布于12分钟前的15:23 UTC
风速5节,风向
温度 6°C
湿度 100%
气压 1025 hPa
能見度: 0500
轻雾, 雾

METAR: YMML 251523Z 01005KT 1500 BR 06/06 Q1025 FM1530 36005KT 0500 FG

时间: 01:35 (15:35 UTC)

预报

该预报发布于13分钟前的15:22 UTC
预报有效从25日的 15点(UTC)到 26日的 18点(UTC)
风速5节,风向
能見度: 0200
多云层高于200英尺
成为
从 25日的 20点(UTC)到 25日的 21点(UTC)
风速7节,风向
能见度10公里或以上
1500米以下无云,无积雨云
从 26日的 0900点(UTC)
风速7节,风向
能见度10公里或以上
1500米以下无云,无积雨云

TAF: YMML 251522Z 2515/2618 36005KT 0200 FG BKN002 BECMG 2520/2521 01007KT CAVOK FM260900 36007KT CAVOK

超过4000个机场的气象观测和天气预报(METAR&TAF报告)。

可查询的气象台以黄色和红色小点在地图上表示。

将鼠标移到小点上方,可查看气象台名称。

然后点击查看天气观测和预报。

如需切换地图:点击带黑十字的绿色按钮放大地图;点击带横线的绿色按钮缩小地图;或者点击绿色箭头查看邻近地区的地图。


METAR-TAF: